sensor_id;sensor_type;location;lat;lon;timestamp;pressure;altitude;pressure_sealevel;temperature;humidity
22651;BME280;11492;42.646;23.400;2023-02-12T00:00:59;96021.25;;;0.35;49.25
22651;BME280;11492;42.646;23.400;2023-02-12T00:03:25;96021.22;;;0.49;46.67
22651;BME280;11492;42.646;23.400;2023-02-12T00:05:50;96013.59;;;0.75;46.92
22651;BME280;11492;42.646;23.400;2023-02-12T00:08:16;96017.59;;;0.91;46.17
22651;BME280;11492;42.646;23.400;2023-02-12T00:10:42;96001.69;;;1.01;45.92
22651;BME280;11492;42.646;23.400;2023-02-12T00:13:11;96011.69;;;1.17;45.96
22651;BME280;11492;42.646;23.400;2023-02-12T00:15:40;96012.09;;;1.23;45.99
22651;BME280;11492;42.646;23.400;2023-02-12T00:18:07;96012.13;;;1.35;45.77
22651;BME280;11492;42.646;23.400;2023-02-12T00:20:33;96011.44;;;1.46;45.76
22651;BME280;11492;42.646;23.400;2023-02-12T00:22:58;96015.06;;;1.54;45.47
22651;BME280;11492;42.646;23.400;2023-02-12T00:25:24;96018.25;;;1.57;44.37
22651;BME280;11492;42.646;23.400;2023-02-12T00:27:49;96007.47;;;1.66;44.79
22651;BME280;11492;42.646;23.400;2023-02-12T00:30:14;96014.38;;;1.64;44.91
22651;BME280;11492;42.646;23.400;2023-02-12T00:32:40;96000.94;;;1.74;43.66
22651;BME280;11492;42.646;23.400;2023-02-12T00:35:06;96009.47;;;1.86;44.17
22651;BME280;11492;42.646;23.400;2023-02-12T00:37:31;96002.34;;;1.78;43.89
22651;BME280;11492;42.646;23.400;2023-02-12T00:39:56;95997.25;;;1.91;43.93
22651;BME280;11492;42.646;23.400;2023-02-12T00:42:22;95987.91;;;1.79;44.19
22651;BME280;11492;42.646;23.400;2023-02-12T00:44:47;95985.13;;;1.94;43.47
22651;BME280;11492;42.646;23.400;2023-02-12T00:47:13;95987.38;;;1.98;43.04
22651;BME280;11492;42.646;23.400;2023-02-12T00:49:38;95984.75;;;1.88;43.72
22651;BME280;11492;42.646;23.400;2023-02-12T00:52:04;95986.88;;;1.94;43.14
22651;BME280;11492;42.646;23.400;2023-02-12T00:54:31;95979.66;;;1.88;43.54
22651;BME280;11492;42.646;23.400;2023-02-12T00:56:57;95976.88;;;1.91;43.18
22651;BME280;11492;42.646;23.400;2023-02-12T00:59:23;95969.31;;;2.01;42.65
22651;BME280;11492;42.646;23.400;2023-02-12T01:01:50;95963.72;;;2.09;42.89
22651;BME280;11492;42.646;23.400;2023-02-12T01:04:16;95961.78;;;2.12;42.65
22651;BME280;11492;42.646;23.400;2023-02-12T01:06:42;95960.75;;;2.15;43.00
22651;BME280;11492;42.646;23.400;2023-02-12T01:09:07;95961.13;;;2.21;42.10
22651;BME280;11492;42.646;23.400;2023-02-12T01:11:33;95953.00;;;2.16;42.77
22651;BME280;11492;42.646;23.400;2023-02-12T01:13:59;95969.69;;;2.20;42.40
22651;BME280;11492;42.646;23.400;2023-02-12T01:16:24;95964.59;;;2.20;42.90
22651;BME280;11492;42.646;23.400;2023-02-12T01:18:51;95971.69;;;2.27;42.17
22651;BME280;11492;42.646;23.400;2023-02-12T01:21:20;95972.75;;;2.25;42.62
22651;BME280;11492;42.646;23.400;2023-02-12T01:23:46;95977.94;;;2.23;43.05
22651;BME280;11492;42.646;23.400;2023-02-12T01:26:12;95987.81;;;2.28;42.57
22651;BME280;11492;42.646;23.400;2023-02-12T01:28:39;95980.06;;;2.29;42.32
22651;BME280;11492;42.646;23.400;2023-02-12T01:31:14;95979.75;;;2.34;42.63
22651;BME280;11492;42.646;23.400;2023-02-12T01:33:41;95981.69;;;2.30;42.57
22651;BME280;11492;42.646;23.400;2023-02-12T01:36:07;95982.44;;;2.43;42.30
22651;BME280;11492;42.646;23.400;2023-02-12T01:38:33;95974.94;;;2.42;42.54
22651;BME280;11492;42.646;23.400;2023-02-12T01:41:08;95969.41;;;2.47;43.35
22651;BME280;11492;42.646;23.400;2023-02-12T01:43:34;95962.69;;;2.47;43.23
22651;BME280;11492;42.646;23.400;2023-02-12T01:46:01;95962.91;;;2.44;42.85
22651;BME280;11492;42.646;23.400;2023-02-12T01:48:29;95953.63;;;2.43;42.75
22651;BME280;11492;42.646;23.400;2023-02-12T01:50:58;95953.91;;;2.50;43.05
22651;BME280;11492;42.646;23.400;2023-02-12T01:53:30;95955.53;;;2.51;43.00
22651;BME280;11492;42.646;23.400;2023-02-12T01:56:00;95942.19;;;2.48;43.05
22651;BME280;11492;42.646;23.400;2023-02-12T01:58:29;95931.91;;;2.49;43.72
22651;BME280;11492;42.646;23.400;2023-02-12T02:00:57;95923.66;;;2.46;43.58
22651;BME280;11492;42.646;23.400;2023-02-12T02:03:23;95931.31;;;2.46;43.38
22651;BME280;11492;42.646;23.400;2023-02-12T02:05:59;95936.06;;;2.50;43.41
22651;BME280;11492;42.646;23.400;2023-02-12T02:08:25;95935.16;;;2.51;43.45
22651;BME280;11492;42.646;23.400;2023-02-12T02:10:51;95935.09;;;2.41;44.33
22651;BME280;11492;42.646;23.400;2023-02-12T02:13:17;95939.34;;;2.17;44.10
22651;BME280;11492;42.646;23.400;2023-02-12T02:16:09;95935.34;;;2.25;44.72
22651;BME280;11492;42.646;23.400;2023-02-12T02:18:47;95941.00;;;2.18;44.83
22651;BME280;11492;42.646;23.400;2023-02-12T02:32:26;95927.41;;;1.95;45.00
22651;BME280;11492;42.646;23.400;2023-02-12T02:35:09;95933.53;;;1.92;45.25
22651;BME280;11492;42.646;23.400;2023-02-12T02:37:39;95935.28;;;1.79;45.45
22651;BME280;11492;42.646;23.400;2023-02-12T02:40:22;95930.91;;;1.69;46.30
22651;BME280;11492;42.646;23.400;2023-02-12T02:43:05;95927.66;;;1.67;46.50
22651;BME280;11492;42.646;23.400;2023-02-12T02:45:54;95931.63;;;1.71;45.97
22651;BME280;11492;42.646;23.400;2023-02-12T02:48:25;95938.75;;;1.78;45.50
22651;BME280;11492;42.646;23.400;2023-02-12T02:50:58;95950.94;;;1.86;45.80
22651;BME280;11492;42.646;23.400;2023-02-12T02:53:56;95963.56;;;1.87;45.69
22651;BME280;11492;42.646;23.400;2023-02-12T02:56:25;95959.06;;;1.91;45.82
22651;BME280;11492;42.646;23.400;2023-02-12T02:59:05;95964.97;;;1.91;45.85
22651;BME280;11492;42.646;23.400;2023-02-12T03:01:48;95968.25;;;1.93;46.49
22651;BME280;11492;42.646;23.400;2023-02-12T03:04:31;95956.94;;;1.97;46.28
22651;BME280;11492;42.646;23.400;2023-02-12T03:07:02;95955.50;;;1.93;46.42
22651;BME280;11492;42.646;23.400;2023-02-12T03:09:56;95957.75;;;1.98;47.18
22651;BME280;11492;42.646;23.400;2023-02-12T03:12:32;95956.09;;;1.97;47.37
22651;BME280;11492;42.646;23.400;2023-02-12T03:15:07;95956.09;;;1.97;47.65
22651;BME280;11492;42.646;23.400;2023-02-12T03:17:37;95947.78;;;1.95;47.23
22651;BME280;11492;42.646;23.400;2023-02-12T03:20:15;95963.88;;;1.83;47.42
22651;BME280;11492;42.646;23.400;2023-02-12T03:22:47;95955.53;;;1.69;48.33
22651;BME280;11492;42.646;23.400;2023-02-12T03:25:17;95960.53;;;1.70;48.34
22651;BME280;11492;42.646;23.400;2023-02-12T03:27:53;95957.47;;;1.77;48.14
22651;BME280;11492;42.646;23.400;2023-02-12T03:30:22;95946.75;;;1.85;48.36
22651;BME280;11492;42.646;23.400;2023-02-12T03:33:16;95945.16;;;1.84;48.64
22651;BME280;11492;42.646;23.400;2023-02-12T03:35:54;95950.72;;;1.89;48.27
22651;BME280;11492;42.646;23.400;2023-02-12T03:40:59;95935.75;;;1.97;48.66
22651;BME280;11492;42.646;23.400;2023-02-12T03:43:32;95942.25;;;2.00;48.27
22651;BME280;11492;42.646;23.400;2023-02-12T03:46:10;95936.47;;;1.98;47.59
22651;BME280;11492;42.646;23.400;2023-02-12T03:48:58;95930.03;;;2.05;47.07
22651;BME280;11492;42.646;23.400;2023-02-12T03:51:39;95932.44;;;2.07;47.13
22651;BME280;11492;42.646;23.400;2023-02-12T03:54:08;95922.88;;;2.10;47.35
22651;BME280;11492;42.646;23.400;2023-02-12T03:56:42;95934.47;;;2.14;47.81
22651;BME280;11492;42.646;23.400;2023-02-12T03:59:09;95934.25;;;2.17;47.55
22651;BME280;11492;42.646;23.400;2023-02-12T04:01:35;95934.38;;;2.16;46.98
22651;BME280;11492;42.646;23.400;2023-02-12T04:04:04;95933.94;;;2.22;47.15
22651;BME280;11492;42.646;23.400;2023-02-12T04:06:30;95924.78;;;2.19;47.18
22651;BME280;11492;42.646;23.400;2023-02-12T04:08:58;95936.59;;;2.20;48.36
22651;BME280;11492;42.646;23.400;2023-02-12T04:20:22;95939.75;;;2.23;47.77
22651;BME280;11492;42.646;23.400;2023-02-12T04:30:33;95940.34;;;2.27;47.02
22651;BME280;11492;42.646;23.400;2023-02-12T04:33:02;95953.06;;;2.27;47.33
22651;BME280;11492;42.646;23.400;2023-02-12T04:35:33;95953.06;;;2.27;47.88
22651;BME280;11492;42.646;23.400;2023-02-12T04:38:14;95955.91;;;2.35;46.94
22651;BME280;11492;42.646;23.400;2023-02-12T04:40:41;95957.66;;;2.34;46.91
22651;BME280;11492;42.646;23.400;2023-02-12T04:43:08;95959.88;;;2.39;47.01
22651;BME280;11492;42.646;23.400;2023-02-12T04:45:35;95947.34;;;2.36;47.01
22651;BME280;11492;42.646;23.400;2023-02-12T04:48:01;95961.06;;;2.46;47.59
22651;BME280;11492;42.646;23.400;2023-02-12T04:50:36;95965.03;;;2.49;47.05
22651;BME280;11492;42.646;23.400;2023-02-12T04:53:02;95971.50;;;2.53;46.39
22651;BME280;11492;42.646;23.400;2023-02-12T04:55:27;95963.41;;;2.48;47.69
22651;BME280;11492;42.646;23.400;2023-02-12T04:57:53;95964.53;;;2.45;47.47
22651;BME280;11492;42.646;23.400;2023-02-12T05:00:18;95964.75;;;2.42;47.45
22651;BME280;11492;42.646;23.400;2023-02-12T05:02:44;95962.13;;;2.31;47.58
22651;BME280;11492;42.646;23.400;2023-02-12T05:05:09;95967.53;;;2.39;48.00
22651;BME280;11492;42.646;23.400;2023-02-12T05:07:35;95954.97;;;2.36;48.26
22651;BME280;11492;42.646;23.400;2023-02-12T05:10:01;95962.69;;;2.47;47.91
22651;BME280;11492;42.646;23.400;2023-02-12T05:12:26;95964.09;;;2.50;47.67
22651;BME280;11492;42.646;23.400;2023-02-12T05:14:51;95968.97;;;2.53;47.34
22651;BME280;11492;42.646;23.400;2023-02-12T05:17:17;95964.09;;;2.50;47.63
22651;BME280;11492;42.646;23.400;2023-02-12T05:19:42;95967.91;;;2.45;47.16
22651;BME280;11492;42.646;23.400;2023-02-12T05:22:07;95968.69;;;2.46;47.54
22651;BME280;11492;42.646;23.400;2023-02-12T05:24:33;95972.88;;;2.47;47.72
22651;BME280;11492;42.646;23.400;2023-02-12T05:26:58;95982.69;;;2.40;47.93
22651;BME280;11492;42.646;23.400;2023-02-12T05:29:24;95993.50;;;2.44;48.39
22651;BME280;11492;42.646;23.400;2023-02-12T05:31:49;95997.34;;;2.49;47.83
22651;BME280;11492;42.646;23.400;2023-02-12T05:34:14;95997.75;;;2.43;49.39
22651;BME280;11492;42.646;23.400;2023-02-12T05:36:40;96000.19;;;2.45;50.18
22651;BME280;11492;42.646;23.400;2023-02-12T05:39:06;95998.16;;;2.49;49.58
22651;BME280;11492;42.646;23.400;2023-02-12T05:41:32;96003.88;;;2.41;49.39
22651;BME280;11492;42.646;23.400;2023-02-12T05:44:00;96006.59;;;2.50;49.75
22651;BME280;11492;42.646;23.400;2023-02-12T05:46:25;96009.16;;;2.38;49.11
22651;BME280;11492;42.646;23.400;2023-02-12T05:48:51;96006.97;;;2.33;49.08
22651;BME280;11492;42.646;23.400;2023-02-12T05:51:22;96012.06;;;2.33;49.55
22651;BME280;11492;42.646;23.400;2023-02-12T05:53:50;96007.91;;;2.20;50.47
22651;BME280;11492;42.646;23.400;2023-02-12T05:56:17;96011.72;;;2.38;50.69
22651;BME280;11492;42.646;23.400;2023-02-12T05:58:46;96016.41;;;2.44;50.09
22651;BME280;11492;42.646;23.400;2023-02-12T06:01:15;96018.97;;;2.44;50.07
22651;BME280;11492;42.646;23.400;2023-02-12T06:03:40;96022.50;;;2.41;51.25
22651;BME280;11492;42.646;23.400;2023-02-12T06:06:06;96019.53;;;2.47;51.73
22651;BME280;11492;42.646;23.400;2023-02-12T06:08:32;96022.00;;;2.48;52.04
22651;BME280;11492;42.646;23.400;2023-02-12T06:11:02;96022.81;;;2.49;52.45
22651;BME280;11492;42.646;23.400;2023-02-12T06:13:29;96020.59;;;2.32;52.81
22651;BME280;11492;42.646;23.400;2023-02-12T06:15:55;96017.09;;;2.46;52.43
22651;BME280;11492;42.646;23.400;2023-02-12T06:18:21;96016.38;;;2.56;52.74
22651;BME280;11492;42.646;23.400;2023-02-12T06:20:46;96030.22;;;2.64;52.45
22651;BME280;11492;42.646;23.400;2023-02-12T06:23:12;96025.84;;;2.54;52.76
22651;BME280;11492;42.646;23.400;2023-02-12T06:25:37;96027.09;;;2.48;53.79
22651;BME280;11492;42.646;23.400;2023-02-12T06:28:03;96017.03;;;2.35;53.95
22651;BME280;11492;42.646;23.400;2023-02-12T06:30:28;96016.47;;;2.19;55.02
22651;BME280;11492;42.646;23.400;2023-02-12T06:32:56;96035.06;;;2.32;55.78
22651;BME280;11492;42.646;23.400;2023-02-12T06:35:21;96030.97;;;2.42;56.12
22651;BME280;11492;42.646;23.400;2023-02-12T06:37:46;96032.34;;;2.23;56.96
22651;BME280;11492;42.646;23.400;2023-02-12T06:40:12;96040.06;;;2.33;57.36
22651;BME280;11492;42.646;23.400;2023-02-12T06:42:38;96033.69;;;2.86;58.75
22651;BME280;11492;42.646;23.400;2023-02-12T06:45:03;96022.56;;;2.64;57.57
22651;BME280;11492;42.646;23.400;2023-02-12T06:47:29;96035.41;;;2.86;57.85
22651;BME280;11492;42.646;23.400;2023-02-12T06:49:54;96023.22;;;3.01;57.40
22651;BME280;11492;42.646;23.400;2023-02-12T06:52:19;96023.28;;;3.23;57.14
22651;BME280;11492;42.646;23.400;2023-02-12T06:54:46;96027.81;;;3.30;56.20
22651;BME280;11492;42.646;23.400;2023-02-12T06:57:12;96031.63;;;3.25;57.52
22651;BME280;11492;42.646;23.400;2023-02-12T06:59:37;96039.41;;;3.23;57.32
22651;BME280;11492;42.646;23.400;2023-02-12T07:02:03;96040.66;;;3.18;57.86
22651;BME280;11492;42.646;23.400;2023-02-12T07:04:28;96041.31;;;3.09;57.92
22651;BME280;11492;42.646;23.400;2023-02-12T07:06:54;96036.56;;;2.82;58.71
22651;BME280;11492;42.646;23.400;2023-02-12T07:09:19;96038.97;;;2.83;58.96
22651;BME280;11492;42.646;23.400;2023-02-12T07:11:44;96033.06;;;2.60;59.52
22651;BME280;11492;42.646;23.400;2023-02-12T07:14:14;96038.69;;;2.52;59.13
22651;BME280;11492;42.646;23.400;2023-02-12T07:16:40;96041.69;;;2.34;60.28
22651;BME280;11492;42.646;23.400;2023-02-12T07:19:05;96048.38;;;2.47;60.71
22651;BME280;11492;42.646;23.400;2023-02-12T07:21:31;96048.06;;;2.52;60.30
22651;BME280;11492;42.646;23.400;2023-02-12T07:23:56;96034.94;;;2.46;60.59
22651;BME280;11492;42.646;23.400;2023-02-12T07:26:22;96038.84;;;2.39;59.77
22651;BME280;11492;42.646;23.400;2023-02-12T07:28:48;96046.06;;;2.45;60.12
22651;BME280;11492;42.646;23.400;2023-02-12T07:31:14;96049.41;;;2.33;61.03
22651;BME280;11492;42.646;23.400;2023-02-12T07:33:41;96044.75;;;2.27;60.79
22651;BME280;11492;42.646;23.400;2023-02-12T07:36:10;96034.63;;;2.38;60.27
22651;BME280;11492;42.646;23.400;2023-02-12T07:38:37;96052.66;;;2.47;60.28
22651;BME280;11492;42.646;23.400;2023-02-12T07:41:09;96054.19;;;2.49;60.75
22651;BME280;11492;42.646;23.400;2023-02-12T07:43:36;96060.13;;;2.73;59.79
22651;BME280;11492;42.646;23.400;2023-02-12T07:46:07;96052.22;;;2.65;60.30
22651;BME280;11492;42.646;23.400;2023-02-12T07:48:32;96063.16;;;2.78;59.67
22651;BME280;11492;42.646;23.400;2023-02-12T07:51:02;96059.66;;;2.91;59.47
22651;BME280;11492;42.646;23.400;2023-02-12T07:53:28;96065.84;;;2.99;59.50
22651;BME280;11492;42.646;23.400;2023-02-12T07:55:53;96061.66;;;2.98;60.11
22651;BME280;11492;42.646;23.400;2023-02-12T07:58:18;96058.78;;;3.03;60.09
22651;BME280;11492;42.646;23.400;2023-02-12T08:00:44;96061.94;;;3.06;58.68
22651;BME280;11492;42.646;23.400;2023-02-12T08:03:09;96057.19;;;2.67;59.62
22651;BME280;11492;42.646;23.400;2023-02-12T08:05:35;96062.25;;;2.79;59.99
22651;BME280;11492;42.646;23.400;2023-02-12T08:08:00;96071.75;;;2.77;59.89
22651;BME280;11492;42.646;23.400;2023-02-12T08:10:25;96071.84;;;2.75;61.13
22651;BME280;11492;42.646;23.400;2023-02-12T08:12:51;96068.06;;;2.81;59.99
22651;BME280;11492;42.646;23.400;2023-02-12T08:15:16;96068.50;;;2.63;60.91
22651;BME280;11492;42.646;23.400;2023-02-12T08:17:42;96064.97;;;2.65;61.33
22651;BME280;11492;42.646;23.400;2023-02-12T08:20:08;96070.28;;;2.50;61.52
22651;BME280;11492;42.646;23.400;2023-02-12T08:22:33;96076.56;;;2.69;62.18
22651;BME280;11492;42.646;23.400;2023-02-12T08:24:58;96066.28;;;2.58;61.84
22651;BME280;11492;42.646;23.400;2023-02-12T08:27:24;96077.09;;;2.62;61.31
22651;BME280;11492;42.646;23.400;2023-02-12T08:29:49;96081.75;;;2.80;61.56
22651;BME280;11492;42.646;23.400;2023-02-12T08:32:15;96088.41;;;2.93;60.74
22651;BME280;11492;42.646;23.400;2023-02-12T08:34:41;96095.63;;;2.99;60.34
22651;BME280;11492;42.646;23.400;2023-02-12T08:37:06;96090.94;;;3.05;60.18
22651;BME280;11492;42.646;23.400;2023-02-12T08:39:32;96095.84;;;2.96;60.74
22651;BME280;11492;42.646;23.400;2023-02-12T08:41:58;96097.38;;;2.98;60.52
22651;BME280;11492;42.646;23.400;2023-02-12T08:44:24;96099.72;;;3.01;60.07
22651;BME280;11492;42.646;23.400;2023-02-12T08:46:51;96105.31;;;3.06;60.54
22651;BME280;11492;42.646;23.400;2023-02-12T08:49:19;96105.50;;;3.03;60.15
22651;BME280;11492;42.646;23.400;2023-02-12T08:51:46;96103.59;;;2.95;60.81
22651;BME280;11492;42.646;23.400;2023-02-12T08:54:15;96109.81;;;2.55;62.03
22651;BME280;11492;42.646;23.400;2023-02-12T08:56:41;96115.53;;;2.47;61.36
22651;BME280;11492;42.646;23.400;2023-02-12T08:59:07;96117.16;;;2.47;62.00
22651;BME280;11492;42.646;23.400;2023-02-12T09:01:35;96120.44;;;2.49;61.15
22651;BME280;11492;42.646;23.400;2023-02-12T09:04:06;96115.44;;;2.60;61.44
22651;BME280;11492;42.646;23.400;2023-02-12T09:06:33;96107.06;;;2.58;61.79
22651;BME280;11492;42.646;23.400;2023-02-12T09:09:00;96112.88;;;2.60;61.67
22651;BME280;11492;42.646;23.400;2023-02-12T09:11:27;96124.22;;;2.79;61.69
22651;BME280;11492;42.646;23.400;2023-02-12T09:14:06;96127.88;;;2.88;61.08
22651;BME280;11492;42.646;23.400;2023-02-12T09:16:34;96128.75;;;2.76;61.32
22651;BME280;11492;42.646;23.400;2023-02-12T09:19:00;96131.41;;;2.74;61.74
22651;BME280;11492;42.646;23.400;2023-02-12T09:21:26;96129.94;;;2.83;62.57
22651;BME280;11492;42.646;23.400;2023-02-12T09:23:52;96134.22;;;2.82;62.05
22651;BME280;11492;42.646;23.400;2023-02-12T09:26:20;96141.59;;;2.62;62.28
22651;BME280;11492;42.646;23.400;2023-02-12T09:28:46;96139.78;;;2.52;62.68
22651;BME280;11492;42.646;23.400;2023-02-12T09:31:32;96144.22;;;2.73;62.29
22651;BME280;11492;42.646;23.400;2023-02-12T09:34:00;96129.44;;;2.78;61.99
22651;BME280;11492;42.646;23.400;2023-02-12T09:36:26;96139.53;;;2.79;63.05
22651;BME280;11492;42.646;23.400;2023-02-12T09:38:52;96132.66;;;2.69;62.83
22651;BME280;11492;42.646;23.400;2023-02-12T09:44:21;96142.25;;;2.89;62.37
22651;BME280;11492;42.646;23.400;2023-02-12T09:49:36;96134.09;;;2.96;61.64
22651;BME280;11492;42.646;23.400;2023-02-12T09:52:11;96128.88;;;2.97;61.69
22651;BME280;11492;42.646;23.400;2023-02-12T09:54:39;96136.94;;;3.27;62.05
22651;BME280;11492;42.646;23.400;2023-02-12T09:57:13;96137.69;;;3.40;61.77
22651;BME280;11492;42.646;23.400;2023-02-12T09:59:52;96150.44;;;3.52;60.69
22651;BME280;11492;42.646;23.400;2023-02-12T10:02:21;96130.84;;;3.40;60.91
22651;BME280;11492;42.646;23.400;2023-02-12T10:04:49;96144.44;;;3.41;61.46
22651;BME280;11492;42.646;23.400;2023-02-12T10:07:37;96139.38;;;3.51;61.10
22651;BME280;11492;42.646;23.400;2023-02-12T10:24:23;96139.63;;;5.13;55.33
22651;BME280;11492;42.646;23.400;2023-02-12T10:27:02;96147.03;;;5.27;55.66
22651;BME280;11492;42.646;23.400;2023-02-12T10:29:31;96139.81;;;5.21;55.20
22651;BME280;11492;42.646;23.400;2023-02-12T10:32:09;96140.09;;;5.18;54.99
22651;BME280;11492;42.646;23.400;2023-02-12T10:34:37;96151.69;;;5.11;54.95
22651;BME280;11492;42.646;23.400;2023-02-12T10:37:13;96137.44;;;4.76;55.04
22651;BME280;11492;42.646;23.400;2023-02-12T10:39:49;96143.72;;;4.72;55.45
22651;BME280;11492;42.646;23.400;2023-02-12T10:42:37;96139.03;;;4.23;57.20
22651;BME280;11492;42.646;23.400;2023-02-12T10:45:04;96140.06;;;4.21;57.48
22651;BME280;11492;42.646;23.400;2023-02-12T10:47:29;96144.59;;;4.28;57.69
22651;BME280;11492;42.646;23.400;2023-02-12T10:50:00;96141.97;;;4.30;57.67
22651;BME280;11492;42.646;23.400;2023-02-12T10:52:40;96156.13;;;4.34;58.15
22651;BME280;11492;42.646;23.400;2023-02-12T10:55:29;96146.81;;;4.33;57.50
22651;BME280;11492;42.646;23.400;2023-02-12T10:57:56;96136.59;;;4.22;57.85
22651;BME280;11492;42.646;23.400;2023-02-12T11:00:28;96159.47;;;4.23;58.30
22651;BME280;11492;42.646;23.400;2023-02-12T11:03:22;96146.38;;;4.39;58.16
22651;BME280;11492;42.646;23.400;2023-02-12T11:05:48;96133.72;;;4.48;57.28
22651;BME280;11492;42.646;23.400;2023-02-12T11:08:34;96142.66;;;4.75;57.03
22651;BME280;11492;42.646;23.400;2023-02-12T11:11:10;96136.97;;;5.04;56.56
22651;BME280;11492;42.646;23.400;2023-02-12T11:13:38;96138.66;;;5.25;55.05
22651;BME280;11492;42.646;23.400;2023-02-12T11:16:04;96143.63;;;5.37;55.74
22651;BME280;11492;42.646;23.400;2023-02-12T11:18:31;96139.19;;;4.97;55.50
22651;BME280;11492;42.646;23.400;2023-02-12T11:21:06;96147.59;;;5.30;55.66
22651;BME280;11492;42.646;23.400;2023-02-12T11:23:37;96150.72;;;5.45;54.05
22651;BME280;11492;42.646;23.400;2023-02-12T11:26:23;96144.41;;;5.48;54.91
22651;BME280;11492;42.646;23.400;2023-02-12T11:29:00;96131.81;;;5.56;54.36
22651;BME280;11492;42.646;23.400;2023-02-12T11:36:44;96122.78;;;6.03;53.18
22651;BME280;11492;42.646;23.400;2023-02-12T11:39:34;96121.97;;;6.03;53.17
22651;BME280;11492;42.646;23.400;2023-02-12T11:42:18;96133.41;;;5.99;53.90
22651;BME280;11492;42.646;23.400;2023-02-12T11:44:50;96131.34;;;5.93;53.55
22651;BME280;11492;42.646;23.400;2023-02-12T11:47:23;96138.81;;;5.96;53.34
22651;BME280;11492;42.646;23.400;2023-02-12T11:49:50;96139.72;;;5.75;54.39
22651;BME280;11492;42.646;23.400;2023-02-12T11:52:20;96127.81;;;5.74;53.92
22651;BME280;11492;42.646;23.400;2023-02-12T11:54:46;96124.72;;;5.60;54.47
22651;BME280;11492;42.646;23.400;2023-02-12T11:57:35;96139.47;;;5.67;54.79
22651;BME280;11492;42.646;23.400;2023-02-12T12:00:05;96139.81;;;5.63;54.87
22651;BME280;11492;42.646;23.400;2023-02-12T12:02:38;96143.28;;;5.42;55.37
22651;BME280;11492;42.646;23.400;2023-02-12T12:05:20;96146.13;;;5.59;54.56
22651;BME280;11492;42.646;23.400;2023-02-12T12:07:56;96142.28;;;5.53;54.42
22651;BME280;11492;42.646;23.400;2023-02-12T12:10:35;96127.63;;;5.55;55.10
22651;BME280;11492;42.646;23.400;2023-02-12T12:13:10;96128.88;;;5.72;54.16
22651;BME280;11492;42.646;23.400;2023-02-12T12:15:42;96139.22;;;5.81;53.76
22651;BME280;11492;42.646;23.400;2023-02-12T12:18:33;96136.09;;;5.97;53.95
22651;BME280;11492;42.646;23.400;2023-02-12T12:22:02;96146.00;;;6.02;52.88
22651;BME280;11492;42.646;23.400;2023-02-12T12:30:17;96147.31;;;5.55;54.44
22651;BME280;11492;42.646;23.400;2023-02-12T12:32:46;96145.19;;;5.71;53.81
22651;BME280;11492;42.646;23.400;2023-02-12T12:35:16;96152.63;;;5.73;54.11
22651;BME280;11492;42.646;23.400;2023-02-12T12:37:58;96152.91;;;5.91;54.27
22651;BME280;11492;42.646;23.400;2023-02-12T12:40:56;96158.97;;;5.90;53.04
22651;BME280;11492;42.646;23.400;2023-02-12T12:46:30;96154.81;;;6.09;53.32
22651;BME280;11492;42.646;23.400;2023-02-12T12:49:09;96158.13;;;6.20;53.20
22651;BME280;11492;42.646;23.400;2023-02-12T12:52:09;96155.94;;;5.96;53.65
22651;BME280;11492;42.646;23.400;2023-02-12T13:03:47;96167.94;;;5.43;55.52
22651;BME280;11492;42.646;23.400;2023-02-12T13:09:28;96167.91;;;5.64;54.81
22651;BME280;11492;42.646;23.400;2023-02-12T13:14:53;96173.72;;;5.55;54.66
22651;BME280;11492;42.646;23.400;2023-02-12T13:17:38;96174.97;;;5.19;54.55
22651;BME280;11492;42.646;23.400;2023-02-12T13:28:04;96181.63;;;4.78;56.69
22651;BME280;11492;42.646;23.400;2023-02-12T13:30:41;96188.81;;;4.95;57.28
22651;BME280;11492;42.646;23.400;2023-02-12T13:33:24;96185.13;;;4.88;56.53
22651;BME280;11492;42.646;23.400;2023-02-12T13:35:55;96191.25;;;4.96;56.01
22651;BME280;11492;42.646;23.400;2023-02-12T13:38:37;96196.28;;;4.98;56.19
22651;BME280;11492;42.646;23.400;2023-02-12T13:41:06;96194.28;;;4.69;57.17
22651;BME280;11492;42.646;23.400;2023-02-12T13:43:42;96192.19;;;4.74;56.80
22651;BME280;11492;42.646;23.400;2023-02-12T13:46:37;96199.19;;;4.94;57.22
22651;BME280;11492;42.646;23.400;2023-02-12T13:49:16;96194.41;;;5.00;56.29
22651;BME280;11492;42.646;23.400;2023-02-12T13:51:52;96199.41;;;5.01;57.26
22651;BME280;11492;42.646;23.400;2023-02-12T13:54:47;96200.25;;;5.02;57.36
22651;BME280;11492;42.646;23.400;2023-02-12T13:57:16;96207.06;;;5.01;56.82
22651;BME280;11492;42.646;23.400;2023-02-12T13:59:52;96199.78;;;4.97;56.32
22651;BME280;11492;42.646;23.400;2023-02-12T14:07:47;96219.84;;;4.80;57.57
22651;BME280;11492;42.646;23.400;2023-02-12T14:10:33;96222.19;;;4.83;57.73
22651;BME280;11492;42.646;23.400;2023-02-12T14:13:20;96219.19;;;4.99;57.08
22651;BME280;11492;42.646;23.400;2023-02-12T14:15:55;96216.03;;;4.96;58.07
22651;BME280;11492;42.646;23.400;2023-02-12T14:18:28;96227.53;;;5.01;57.02
22651;BME280;11492;42.646;23.400;2023-02-12T14:23:46;96233.03;;;5.08;57.02
22651;BME280;11492;42.646;23.400;2023-02-12T14:26:18;96235.22;;;5.12;57.05
22651;BME280;11492;42.646;23.400;2023-02-12T14:29:18;96232.44;;;5.26;56.45
22651;BME280;11492;42.646;23.400;2023-02-12T14:31:46;96244.53;;;5.35;56.27
22651;BME280;11492;42.646;23.400;2023-02-12T14:36:45;96242.31;;;5.30;56.33
22651;BME280;11492;42.646;23.400;2023-02-12T14:44:36;96258.84;;;5.05;57.75
22651;BME280;11492;42.646;23.400;2023-02-12T14:49:43;96270.56;;;4.96;57.90
22651;BME280;11492;42.646;23.400;2023-02-12T14:54:46;96263.34;;;5.01;57.02
22651;BME280;11492;42.646;23.400;2023-02-12T14:57:36;96284.03;;;4.77;58.28
22651;BME280;11492;42.646;23.400;2023-02-12T15:00:18;96280.56;;;4.78;57.68
22651;BME280;11492;42.646;23.400;2023-02-12T15:02:58;96288.34;;;4.76;58.02
22651;BME280;11492;42.646;23.400;2023-02-12T15:05:32;96290.06;;;4.76;57.64
22651;BME280;11492;42.646;23.400;2023-02-12T15:08:06;96294.63;;;4.83;58.16